McConnellstown, Pennsylvania
Current Conditions -  °F | °C
As of 10:53 AM on Thursday 29 Jan 2015 (Local Time) from KAOO Reporting Station
Overcast Overcast  
Wind Chill: 25°   Ceiling: 7500
Heat Index: 25°   Visibility: 10mi
Dew Point:   Wind: 3mph
Humidity: 45%   Direction: NA
Pressure: 30.09"   Gusts: NA
Location:  40.45°N, 78.08°W
Report Text: KAOO 291553Z AUTO VRB03KT 10SM OVC075 M04/M14 A3009 RMK AO2 SLP214 T10391144
Loading
Personal Weather Stations






























Interactive Weather Map New forecast layout! Learn more

10-Day Weather Forecast

Advertisements
Track Severe Weather on mobile